createdAt,value
2022-10-17T00:01:19.736Z,101755.00
2022-10-17T00:03:48.694Z,101759.60
2022-10-17T00:06:17.277Z,101752.80
2022-10-17T00:08:45.862Z,101746.80
2022-10-17T00:11:21.040Z,101758.60
2022-10-17T00:13:53.961Z,101763.20
2022-10-17T00:16:41.209Z,101763.60
2022-10-17T00:19:09.897Z,101765.80
2022-10-17T00:21:38.584Z,101764.40
2022-10-17T00:24:07.643Z,101758.40
2022-10-17T00:26:36.471Z,101755.40
2022-10-17T00:29:04.927Z,101753.80
2022-10-17T00:31:34.456Z,101757.40
2022-10-17T00:34:03.246Z,101757.20
2022-10-17T00:36:32.156Z,101761.60
2022-10-17T00:39:01.029Z,101764.20
2022-10-17T00:41:33.600Z,101759.80
2022-10-17T00:44:27.794Z,101766.40
2022-10-17T00:47:01.367Z,101767.40
2022-10-17T00:49:35.610Z,101761.00
2022-10-17T00:52:10.404Z,101768.20
2022-10-17T00:54:44.970Z,101778.00
2022-10-17T00:57:16.615Z,101778.60
2022-10-17T00:59:52.040Z,101782.80
2022-10-17T01:02:23.179Z,101786.60
2022-10-17T01:04:56.811Z,101779.00
2022-10-17T01:07:28.743Z,101778.40
2022-10-17T01:09:59.761Z,101782.60
2022-10-17T01:12:39.567Z,101784.80
2022-10-17T01:16:16.759Z,101776.40
2022-10-17T01:18:48.624Z,101767.40
2022-10-17T01:22:00.935Z,101759.80
2022-10-17T01:24:59.317Z,101750.20
2022-10-17T01:27:52.883Z,101751.00
2022-10-17T01:30:30.069Z,101747.00
2022-10-17T01:34:02.143Z,101749.00
2022-10-17T01:37:15.140Z,101739.20
2022-10-17T01:39:52.725Z,101750.40
2022-10-17T01:42:46.744Z,101753.40
2022-10-17T01:45:28.543Z,101755.20
2022-10-17T01:48:00.918Z,101757.80
2022-10-17T01:50:36.660Z,101759.20
2022-10-17T01:53:36.795Z,101759.00
2022-10-17T01:56:08.960Z,101764.20
2022-10-17T01:58:49.524Z,101756.80
2022-10-17T02:01:23.270Z,101764.20
2022-10-17T02:03:53.922Z,101763.20
2022-10-17T02:06:22.751Z,101767.60
2022-10-17T02:08:52.364Z,101767.40
2022-10-17T02:11:25.653Z,101763.40
2022-10-17T02:14:26.194Z,101761.60
2022-10-17T02:17:18.430Z,101762.60
2022-10-17T02:20:18.045Z,101766.60
2022-10-17T02:23:08.497Z,101762.00
2022-10-17T02:25:44.395Z,101754.20
2022-10-17T02:28:30.642Z,101756.20
2022-10-17T02:31:08.902Z,101745.60
2022-10-17T02:34:10.564Z,101743.00
2022-10-17T02:36:46.344Z,101738.80
2022-10-17T02:39:16.539Z,101740.60
2022-10-17T02:41:47.503Z,101740.80
2022-10-17T02:44:17.392Z,101740.20
2022-10-17T02:46:56.188Z,101746.00
2022-10-17T02:49:30.780Z,101751.40
2022-10-17T02:52:41.002Z,101750.60
2022-10-17T02:55:36.623Z,101750.60
2022-10-17T02:58:30.807Z,101744.80
2022-10-17T03:01:00.764Z,101754.00
2022-10-17T03:03:32.543Z,101758.80
2022-10-17T03:06:04.341Z,101762.40
2022-10-17T03:08:32.882Z,101760.80
2022-10-17T03:11:03.046Z,101757.40
2022-10-17T03:13:34.964Z,101760.40
2022-10-17T03:16:06.622Z,101760.80
2022-10-17T03:18:36.992Z,101763.60
2022-10-17T03:21:06.600Z,101760.80
2022-10-17T03:23:35.801Z,101762.80
2022-10-17T03:26:06.863Z,101757.20
2022-10-17T03:28:36.409Z,101757.80
2022-10-17T03:31:16.029Z,101761.40
2022-10-17T03:33:45.394Z,101754.60
2022-10-17T03:36:18.552Z,101760.60
2022-10-17T03:38:48.792Z,101752.60
2022-10-17T03:41:18.522Z,101757.80
2022-10-17T03:43:47.411Z,101757.60
2022-10-17T03:48:50.522Z,101763.00
2022-10-17T03:51:19.426Z,101768.60
2022-10-17T03:53:52.502Z,101769.60
2022-10-17T03:56:24.964Z,101769.20
2022-10-17T03:59:12.790Z,101768.00
2022-10-17T04:01:42.677Z,101770.60
2022-10-17T04:04:12.031Z,101766.40
2022-10-17T04:06:40.819Z,101774.20
2022-10-17T04:09:11.708Z,101778.40
2022-10-17T04:11:46.002Z,101774.80
2022-10-17T04:14:14.868Z,101773.00
2022-10-17T04:16:44.428Z,101773.60
2022-10-17T04:19:17.156Z,101766.40
2022-10-17T04:21:48.130Z,101767.60
2022-10-17T04:24:17.089Z,101761.60
2022-10-17T04:26:55.262Z,101760.60
2022-10-17T04:29:26.239Z,101758.20
2022-10-17T04:31:58.100Z,101758.60
2022-10-17T04:34:37.335Z,101763.00
2022-10-17T04:37:06.022Z,101760.40
2022-10-17T04:39:34.913Z,101762.60
2022-10-17T04:42:03.399Z,101762.20
2022-10-17T04:44:33.926Z,101760.00
2022-10-17T04:47:02.612Z,101763.80
2022-10-17T04:49:31.145Z,101763.00
2022-10-17T04:52:07.566Z,101764.60
2022-10-17T04:54:44.813Z,101760.00
2022-10-17T04:57:15.279Z,101765.00
2022-10-17T04:59:49.395Z,101760.80
2022-10-17T05:02:28.691Z,101762.20
2022-10-17T05:04:57.416Z,101764.20
2022-10-17T05:07:25.900Z,101766.20
2022-10-17T05:09:58.987Z,101765.20
2022-10-17T05:12:27.945Z,101760.20
2022-10-17T05:14:56.772Z,101774.20
2022-10-17T05:17:26.687Z,101773.60
2022-10-17T05:19:55.170Z,101767.40
2022-10-17T05:22:24.164Z,101762.00
2022-10-17T05:24:52.747Z,101758.60
2022-10-17T05:27:21.127Z,101762.80
2022-10-17T05:29:49.916Z,101759.20
2022-10-17T05:32:26.015Z,101758.80
2022-10-17T05:34:54.662Z,101756.40
2022-10-17T05:37:23.767Z,101756.60
2022-10-17T05:39:53.478Z,101751.80
2022-10-17T05:42:22.110Z,101750.20
2022-10-17T05:44:50.642Z,101756.20
2022-10-17T05:47:20.349Z,101756.20
2022-10-17T05:49:52.308Z,101755.00
2022-10-17T05:52:25.815Z,101753.80
2022-10-17T05:55:14.570Z,101755.20
2022-10-17T05:57:43.052Z,101755.60
2022-10-17T06:00:15.121Z,101753.00
2022-10-17T06:02:48.782Z,101753.80
2022-10-17T06:05:18.508Z,101750.20
2022-10-17T06:07:50.421Z,101752.40
2022-10-17T06:10:19.697Z,101754.00
2022-10-17T06:12:48.178Z,101757.40
2022-10-17T06:15:17.524Z,101758.80
2022-10-17T06:17:49.861Z,101759.00
2022-10-17T06:20:18.334Z,101757.20
2022-10-17T06:22:46.714Z,101760.40
2022-10-17T06:25:22.776Z,101759.20
2022-10-17T06:27:51.257Z,101757.00
2022-10-17T06:30:19.738Z,101757.20
2022-10-17T06:32:48.117Z,101754.60
2022-10-17T06:35:17.521Z,101754.40
2022-10-17T06:37:46.413Z,101757.80
2022-10-17T06:40:17.288Z,101746.40
2022-10-17T06:42:46.551Z,101750.40
2022-10-17T06:45:40.531Z,101751.20
2022-10-17T06:48:29.700Z,101752.00
2022-10-17T06:51:24.394Z,101753.20
2022-10-17T06:53:58.785Z,101756.00
2022-10-17T06:56:42.453Z,101765.00
2022-10-17T06:59:24.964Z,101754.80
2022-10-17T07:02:16.077Z,101759.40
2022-10-17T07:04:47.838Z,101758.80
2022-10-17T07:07:16.420Z,101765.00
2022-10-17T07:09:45.107Z,101767.00
2022-10-17T07:12:13.825Z,101769.40
2022-10-17T07:14:47.703Z,101774.80
2022-10-17T07:17:17.620Z,101781.80
2022-10-17T07:19:46.269Z,101783.80
2022-10-17T07:22:14.787Z,101787.80
2022-10-17T07:24:46.409Z,101788.40
2022-10-17T07:27:41.345Z,101781.80
2022-10-17T07:30:11.161Z,101776.00
2022-10-17T07:32:43.612Z,101782.60
2022-10-17T07:35:12.936Z,101786.80
2022-10-17T07:37:42.552Z,101787.40
2022-10-17T07:40:11.469Z,101782.60
2022-10-17T07:45:14.436Z,101774.80
2022-10-17T07:47:43.642Z,101770.60
2022-10-17T07:50:15.103Z,101766.20
2022-10-17T07:52:43.578Z,101762.40
2022-10-17T07:55:12.163Z,101764.60
2022-10-17T07:57:40.745Z,101763.00
2022-10-17T08:00:10.118Z,101769.00
2022-10-17T08:02:43.033Z,101769.60
2022-10-17T08:05:11.517Z,101767.60
2022-10-17T08:07:41.739Z,101767.40
2022-10-17T08:10:13.941Z,101769.80
2022-10-17T08:12:43.109Z,101774.80
2022-10-17T08:15:12.057Z,101773.40
2022-10-17T08:17:40.482Z,101773.00
2022-10-17T08:20:11.016Z,101778.40
2022-10-17T08:22:39.594Z,101770.00
2022-10-17T08:25:09.305Z,101767.20
2022-10-17T08:27:37.991Z,101771.20
2022-10-17T08:30:07.865Z,101776.20
2022-10-17T08:32:36.390Z,101776.80
2022-10-17T08:35:05.690Z,101767.80
2022-10-17T08:37:34.316Z,101766.60
2022-10-17T08:40:04.065Z,101764.00
2022-10-17T08:42:44.247Z,101765.40
2022-10-17T08:45:23.988Z,101766.80
2022-10-17T08:47:59.824Z,101768.60
2022-10-17T08:50:39.793Z,101768.20
2022-10-17T08:53:31.110Z,101768.00
2022-10-17T08:56:11.960Z,101762.40
2022-10-17T08:58:43.743Z,101762.00
2022-10-17T09:01:33.933Z,101766.40
2022-10-17T09:04:35.752Z,101768.80
2022-10-17T09:07:28.539Z,101767.00
2022-10-17T09:10:26.421Z,101763.80
2022-10-17T09:13:22.141Z,101762.80
2022-10-17T09:16:54.728Z,101761.60
2022-10-17T09:19:45.329Z,101763.80
2022-10-17T09:22:28.727Z,101766.60
2022-10-17T09:25:03.553Z,101765.40
2022-10-17T09:28:11.416Z,101764.60
2022-10-17T09:31:14.693Z,101762.60
2022-10-17T09:33:54.715Z,101769.20
2022-10-17T09:36:30.318Z,101770.40
2022-10-17T09:39:23.173Z,101765.60
2022-10-17T09:42:00.187Z,101765.00
2022-10-17T09:44:36.136Z,101766.00
2022-10-17T09:47:35.698Z,101770.00
2022-10-17T09:50:14.831Z,101769.60
2022-10-17T09:52:48.922Z,101759.60
2022-10-17T09:56:04.328Z,101756.80
2022-10-17T09:58:54.761Z,101754.20
2022-10-17T10:01:29.280Z,101757.20
2022-10-17T10:04:16.877Z,101761.00
2022-10-17T10:07:12.494Z,101767.80
2022-10-17T10:09:47.018Z,101760.60
2022-10-17T10:12:38.763Z,101764.40
2022-10-17T10:15:41.355Z,101760.00
2022-10-17T10:18:25.765Z,101767.40
2022-10-17T10:21:20.012Z,101768.40
2022-10-17T10:24:13.745Z,101764.00
2022-10-17T10:26:50.903Z,101764.20
2022-10-17T10:29:34.987Z,101765.20
2022-10-17T10:32:25.270Z,101767.80
2022-10-17T10:35:21.826Z,101769.40
2022-10-17T10:37:54.564Z,101773.80
2022-10-17T10:40:37.462Z,101771.20
2022-10-17T10:43:07.019Z,101773.00
2022-10-17T10:45:53.603Z,101769.00
2022-10-17T10:48:23.867Z,101764.20
2022-10-17T10:51:12.301Z,101769.80
2022-10-17T10:54:10.580Z,101770.80
2022-10-17T10:56:40.599Z,101760.20
2022-10-17T10:59:08.913Z,101762.40
2022-10-17T11:02:02.551Z,101762.40
2022-10-17T11:04:53.017Z,101756.80
2022-10-17T11:07:36.985Z,101755.60
2022-10-17T11:10:17.354Z,101757.80
2022-10-17T11:13:04.983Z,101756.80
2022-10-17T11:15:45.446Z,101751.20
2022-10-17T11:18:28.571Z,101744.40
2022-10-17T11:21:33.453Z,101743.40
2022-10-17T11:24:34.046Z,101752.00
2022-10-17T11:27:06.700Z,101752.00
2022-10-17T11:29:39.409Z,101751.80
2022-10-17T11:32:31.871Z,101744.20
2022-10-17T11:35:30.950Z,101742.60
2022-10-17T11:38:25.951Z,101741.80
2022-10-17T11:40:59.969Z,101748.60
2022-10-17T11:43:38.977Z,101745.20
2022-10-17T11:46:29.080Z,101748.20
2022-10-17T11:49:20.479Z,101745.00
2022-10-17T11:52:10.281Z,101738.40
2022-10-17T11:54:46.444Z,101738.00
2022-10-17T11:57:42.407Z,101737.40
2022-10-17T12:00:50.324Z,101731.60
2022-10-17T12:04:03.501Z,101728.80
2022-10-17T12:06:46.326Z,101730.00
2022-10-17T12:09:41.071Z,101721.80
2022-10-17T12:12:10.016Z,101718.80
2022-10-17T12:14:42.498Z,101714.00
2022-10-17T12:17:30.947Z,101709.80
2022-10-17T12:20:21.748Z,101708.40
2022-10-17T12:23:11.735Z,101713.00
2022-10-17T12:26:04.725Z,101711.40
2022-10-17T12:28:37.873Z,101712.00
2022-10-17T12:31:29.635Z,101711.40
2022-10-17T12:34:05.669Z,101704.40
2022-10-17T12:36:34.152Z,101703.20
2022-10-17T12:39:02.634Z,101700.60
2022-10-17T12:41:40.252Z,101696.20
2022-10-17T12:44:15.244Z,101703.00
2022-10-17T12:47:18.972Z,101702.80
2022-10-17T12:49:53.098Z,101701.80
2022-10-17T12:52:35.244Z,101693.60
2022-10-17T12:55:12.535Z,101684.80
2022-10-17T12:57:50.484Z,101680.40
2022-10-17T13:01:18.925Z,101675.00
2022-10-17T13:03:47.062Z,101679.20
2022-10-17T13:06:29.655Z,101681.00
2022-10-17T13:09:05.922Z,101676.60
2022-10-17T13:11:37.991Z,101678.20
2022-10-17T13:14:15.685Z,101680.20
2022-10-17T13:16:54.612Z,101679.20
2022-10-17T13:19:31.926Z,101676.80
2022-10-17T13:22:06.791Z,101673.40
2022-10-17T13:24:41.548Z,101669.60
2022-10-17T13:27:33.489Z,101673.60
2022-10-17T13:30:29.332Z,101670.20
2022-10-17T13:33:02.407Z,101667.40
2022-10-17T13:38:32.634Z,101667.80
2022-10-17T13:41:30.191Z,101664.60
2022-10-17T13:43:53.373Z,101665.40
2022-10-17T13:46:39.788Z,101674.20
2022-10-17T13:49:28.157Z,101672.20
2022-10-17T13:51:58.609Z,101670.20
2022-10-17T13:54:42.498Z,101669.40
2022-10-17T13:57:28.067Z,101664.40
2022-10-17T14:00:11.714Z,101666.40
2022-10-17T14:02:41.532Z,101666.00
2022-10-17T14:05:20.182Z,101664.20
2022-10-17T14:08:21.883Z,101671.40
2022-10-17T14:10:50.607Z,101670.40
2022-10-17T14:13:29.087Z,101667.80
2022-10-17T14:16:03.358Z,101665.60
2022-10-17T14:18:37.318Z,101672.40
2022-10-17T14:21:36.855Z,101673.60
2022-10-17T14:24:35.958Z,101672.40
2022-10-17T14:27:42.746Z,101666.60
2022-10-17T14:30:51.775Z,101665.80
2022-10-17T14:33:31.452Z,101665.40
2022-10-17T14:36:02.768Z,101665.40
2022-10-17T14:38:32.167Z,101671.80
2022-10-17T14:41:37.405Z,101669.80
2022-10-17T14:44:03.785Z,101669.00
2022-10-17T14:46:33.244Z,101665.20
2022-10-17T14:49:16.943Z,101672.20
2022-10-17T14:52:18.981Z,101677.20
2022-10-17T14:54:49.990Z,101680.40
2022-10-17T14:57:33.732Z,101676.40
2022-10-17T15:00:02.523Z,101678.40
2022-10-17T15:02:31.400Z,101682.00
2022-10-17T15:05:00.203Z,101686.60
2022-10-17T15:07:29.814Z,101687.20
2022-10-17T15:09:58.600Z,101692.40
2022-10-17T15:12:27.210Z,101695.60
2022-10-17T15:14:55.910Z,101688.60
2022-10-17T15:17:31.629Z,101694.20
2022-10-17T15:20:00.748Z,101690.40
2022-10-17T15:22:29.758Z,101684.80
2022-10-17T15:24:59.015Z,101692.20
2022-10-17T15:27:28.066Z,101697.20
2022-10-17T15:29:57.106Z,101693.40
2022-10-17T15:32:25.486Z,101695.40
2022-10-17T15:34:53.978Z,101688.60
2022-10-17T15:37:25.714Z,101684.40
2022-10-17T15:39:57.107Z,101680.20
2022-10-17T15:42:30.674Z,101680.40
2022-10-17T15:44:59.358Z,101678.20
2022-10-17T15:47:34.427Z,101676.20
2022-10-17T15:50:05.052Z,101683.40
2022-10-17T15:52:33.617Z,101681.40
2022-10-17T15:55:05.261Z,101678.40
2022-10-17T15:57:38.920Z,101678.40
2022-10-17T16:00:20.165Z,101688.60
2022-10-17T16:02:50.340Z,101690.60
2022-10-17T16:05:23.815Z,101698.00
2022-10-17T16:07:54.779Z,101694.80
2022-10-17T16:10:24.224Z,101697.00
2022-10-17T16:12:55.679Z,101700.20
2022-10-17T16:15:28.117Z,101700.20
2022-10-17T16:18:01.577Z,101704.20
2022-10-17T16:20:33.002Z,101704.60
2022-10-17T16:23:03.406Z,101705.40
2022-10-17T16:25:32.970Z,101705.40
2022-10-17T16:28:02.438Z,101710.40
2022-10-17T16:30:33.008Z,101705.00
2022-10-17T16:33:01.865Z,101708.60
2022-10-17T16:35:34.742Z,101709.00
2022-10-17T16:38:08.414Z,101715.00
2022-10-17T16:40:39.216Z,101716.80
2022-10-17T16:43:12.890Z,101720.40
2022-10-17T16:45:41.795Z,101721.20
2022-10-17T16:48:12.516Z,101725.00
2022-10-17T16:50:41.618Z,101722.60
2022-10-17T16:53:10.712Z,101722.40
2022-10-17T16:55:39.510Z,101719.00
2022-10-17T16:58:08.288Z,101725.80
2022-10-17T17:00:39.881Z,101727.80
2022-10-17T17:03:08.426Z,101728.80
2022-10-17T17:05:37.121Z,101731.40
2022-10-17T17:08:09.088Z,101723.20
2022-10-17T17:10:47.633Z,101730.20
2022-10-17T17:13:16.486Z,101733.20
2022-10-17T17:18:23.642Z,101736.80
2022-10-17T17:20:52.072Z,101733.60
2022-10-17T17:23:20.861Z,101732.00
2022-10-17T17:25:50.905Z,101733.40
2022-10-17T17:28:19.461Z,101734.20
2022-10-17T17:30:47.843Z,101731.20
2022-10-17T17:33:16.221Z,101725.20
2022-10-17T17:35:44.809Z,101735.60
2022-10-17T17:38:13.288Z,101737.20
2022-10-17T17:40:50.692Z,101741.60
2022-10-17T17:43:20.289Z,101738.20
2022-10-17T17:45:48.872Z,101738.60
2022-10-17T17:48:17.870Z,101732.80
2022-10-17T17:50:47.692Z,101733.60
2022-10-17T17:53:18.952Z,101737.00
2022-10-17T17:55:47.817Z,101739.40
2022-10-17T17:58:16.503Z,101737.20
2022-10-17T18:00:45.439Z,101740.60
2022-10-17T18:03:15.210Z,101744.80
2022-10-17T18:05:43.793Z,101744.60
2022-10-17T18:08:12.480Z,101739.60
2022-10-17T18:10:41.534Z,101743.20
2022-10-17T18:13:10.673Z,101743.40
2022-10-17T18:15:43.015Z,101747.20
2022-10-17T18:18:11.732Z,101750.60
2022-10-17T18:20:43.200Z,101753.20
2022-10-17T18:23:12.077Z,101753.80
2022-10-17T18:25:41.185Z,101758.80
2022-10-17T18:28:10.270Z,101758.60
2022-10-17T18:30:38.957Z,101757.80
2022-10-17T18:33:07.541Z,101757.60
2022-10-17T18:35:36.200Z,101757.00
2022-10-17T18:38:04.813Z,101752.80
2022-10-17T18:40:33.395Z,101759.80
2022-10-17T18:43:01.979Z,101763.00
2022-10-17T18:45:30.667Z,101759.80
2022-10-17T18:47:59.251Z,101762.20
2022-10-17T18:50:27.835Z,101761.40
2022-10-17T18:52:56.625Z,101761.20
2022-10-17T18:55:25.345Z,101771.40
2022-10-17T18:57:54.032Z,101768.00
2022-10-17T19:00:22.530Z,101767.60
2022-10-17T19:02:51.067Z,101768.00
2022-10-17T19:05:19.997Z,101767.20
2022-10-17T19:07:48.643Z,101772.00
2022-10-17T19:10:17.235Z,101771.80
2022-10-17T19:12:46.463Z,101766.40
2022-10-17T19:15:15.217Z,101763.20
2022-10-17T19:17:43.800Z,101764.00
2022-10-17T19:20:12.821Z,101765.80
2022-10-17T19:22:41.438Z,101768.80
2022-10-17T19:25:11.091Z,101763.40
2022-10-17T19:27:39.675Z,101767.20
2022-10-17T19:30:09.624Z,101765.40
2022-10-17T19:32:38.788Z,101773.00
2022-10-17T19:35:08.159Z,101773.00
2022-10-17T19:37:36.673Z,101775.20
2022-10-17T19:40:07.089Z,101769.20
2022-10-17T19:42:35.686Z,101773.40
2022-10-17T19:45:05.052Z,101771.00
2022-10-17T19:47:34.590Z,101773.60
2022-10-17T19:52:32.827Z,101777.80
2022-10-17T19:55:02.347Z,101779.60
2022-10-17T19:57:30.880Z,101784.20
2022-10-17T19:59:59.370Z,101784.00
2022-10-17T20:02:28.057Z,101781.00
2022-10-17T20:05:17.035Z,101784.40
2022-10-17T20:07:45.393Z,101784.80
2022-10-17T20:10:14.762Z,101785.60
2022-10-17T20:12:43.485Z,101786.40
2022-10-17T20:15:12.384Z,101790.40
2022-10-17T20:17:40.959Z,101793.00
2022-10-17T20:20:10.819Z,101795.20
2022-10-17T20:22:39.457Z,101788.00
2022-10-17T20:25:08.759Z,101787.00
2022-10-17T20:27:37.239Z,101793.00
2022-10-17T20:30:06.754Z,101797.40
2022-10-17T20:32:39.519Z,101795.60
2022-10-17T20:35:09.605Z,101793.60
2022-10-17T20:37:42.387Z,101793.00
2022-10-17T20:43:00.592Z,101798.80
2022-10-17T20:45:43.709Z,101804.20
2022-10-17T20:48:17.832Z,101806.20
2022-10-17T20:50:46.213Z,101807.60
2022-10-17T20:53:35.926Z,101809.20
2022-10-17T20:56:18.094Z,101821.60
2022-10-17T20:58:52.148Z,101822.20
2022-10-17T21:01:21.921Z,101819.20
2022-10-17T21:03:51.460Z,101817.60
2022-10-17T21:06:21.034Z,101821.20
2022-10-17T21:08:50.338Z,101824.20
2022-10-17T21:11:22.177Z,101825.80
2022-10-17T21:14:06.755Z,101826.20
2022-10-17T21:16:37.556Z,101823.20
2022-10-17T21:19:06.674Z,101827.20
2022-10-17T21:21:38.207Z,101832.00
2022-10-17T21:24:13.278Z,101834.40
2022-10-17T21:26:43.706Z,101843.20
2022-10-17T21:29:15.057Z,101849.20
2022-10-17T21:31:45.342Z,101853.00
2022-10-17T21:34:24.823Z,101850.80
2022-10-17T21:36:53.919Z,101853.80
2022-10-17T21:39:25.065Z,101849.60
2022-10-17T21:41:54.230Z,101839.20
2022-10-17T21:44:26.024Z,101845.20
2022-10-17T21:46:55.760Z,101846.60
2022-10-17T21:49:25.650Z,101849.60
2022-10-17T21:51:54.131Z,101852.20
2022-10-17T21:54:23.775Z,101846.80
2022-10-17T21:56:53.097Z,101844.00
2022-10-17T21:59:21.518Z,101846.80
2022-10-17T22:01:50.025Z,101845.80
2022-10-17T22:04:19.843Z,101847.40
2022-10-17T22:06:53.449Z,101845.40
2022-10-17T22:09:27.324Z,101843.80
2022-10-17T22:11:57.169Z,101842.00
2022-10-17T22:14:27.742Z,101841.60
2022-10-17T22:16:56.481Z,101844.00
2022-10-17T22:19:27.077Z,101846.00
2022-10-17T22:21:55.737Z,101845.20
2022-10-17T22:24:24.157Z,101845.00
2022-10-17T22:26:52.846Z,101844.40
2022-10-17T22:29:21.529Z,101850.60
2022-10-17T22:31:50.017Z,101853.20
2022-10-17T22:34:19.193Z,101853.60
2022-10-17T22:36:50.661Z,101860.00
2022-10-17T22:39:19.247Z,101860.80
2022-10-17T22:41:47.626Z,101859.80
2022-10-17T22:44:16.004Z,101859.40
2022-10-17T22:46:44.384Z,101857.60
2022-10-17T22:49:12.866Z,101863.40
2022-10-17T22:51:41.348Z,101856.40
2022-10-17T22:54:09.729Z,101859.40
2022-10-17T22:56:38.215Z,101862.60
2022-10-17T22:59:06.624Z,101863.40
2022-10-17T23:01:35.104Z,101869.20
2022-10-17T23:04:03.655Z,101862.00
2022-10-17T23:06:32.139Z,101869.00
2022-10-17T23:09:00.518Z,101863.80
2022-10-17T23:11:28.999Z,101860.60
2022-10-17T23:13:57.379Z,101861.60
2022-10-17T23:16:25.861Z,101865.00
2022-10-17T23:18:54.248Z,101866.00
2022-10-17T23:21:22.927Z,101866.60
2022-10-17T23:23:51.409Z,101858.80
2022-10-17T23:26:20.916Z,101862.20
2022-10-17T23:28:54.805Z,101866.60
2022-10-17T23:31:23.529Z,101864.20
2022-10-17T23:33:51.994Z,101869.00
2022-10-17T23:36:21.379Z,101866.80
2022-10-17T23:38:52.628Z,101868.40
2022-10-17T23:41:23.686Z,101871.40
2022-10-17T23:43:52.067Z,101863.80
2022-10-17T23:46:20.445Z,101867.40
2022-10-17T23:48:48.938Z,101869.00
2022-10-17T23:51:17.818Z,101868.80
2022-10-17T23:53:46.405Z,101873.80
2022-10-17T23:56:15.149Z,101872.80
2022-10-17T23:58:43.777Z,101868.40
